createdAt,value
2019-05-22T00:01:07.752Z,11.60
2019-05-22T00:03:52.124Z,11.70
2019-05-22T00:06:30.192Z,11.70
2019-05-22T00:09:02.206Z,11.60
2019-05-22T00:11:34.660Z,11.60
2019-05-22T00:14:07.282Z,11.70
2019-05-22T00:16:39.907Z,11.70
2019-05-22T00:19:11.541Z,11.60
2019-05-22T00:21:42.439Z,11.70
2019-05-22T00:24:14.977Z,11.70
2019-05-22T00:26:46.688Z,11.70
2019-05-22T00:29:18.839Z,11.60
2019-05-22T00:31:49.577Z,11.70
2019-05-22T00:34:20.810Z,11.80
2019-05-22T00:36:51.587Z,11.80
2019-05-22T00:39:22.096Z,11.80
2019-05-22T00:41:55.163Z,11.70
2019-05-22T00:44:27.879Z,11.70
2019-05-22T00:47:01.314Z,11.70
2019-05-22T00:49:33.927Z,11.70
2019-05-22T00:52:07.613Z,11.60
2019-05-22T00:54:44.203Z,11.60
2019-05-22T00:57:33.722Z,11.60
2019-05-22T01:00:19.322Z,11.70
2019-05-22T01:02:51.567Z,11.60
2019-05-22T01:05:24.852Z,11.60
2019-05-22T01:07:56.967Z,11.50
2019-05-22T01:10:30.531Z,11.50
2019-05-22T01:13:03.457Z,11.50
2019-05-22T01:15:35.770Z,11.50
2019-05-22T01:18:11.325Z,11.50
2019-05-22T01:20:43.002Z,11.60
2019-05-22T01:23:18.236Z,11.60
2019-05-22T01:25:48.822Z,11.60
2019-05-22T01:28:21.776Z,11.60
2019-05-22T01:30:55.318Z,11.50
2019-05-22T01:33:39.310Z,11.50
2019-05-22T01:36:22.030Z,11.50
2019-05-22T01:38:57.978Z,11.60
2019-05-22T01:41:33.192Z,11.60
2019-05-22T01:44:06.841Z,11.70
2019-05-22T01:46:41.873Z,11.70
2019-05-22T01:49:14.240Z,11.70
2019-05-22T01:51:46.540Z,11.60
2019-05-22T01:54:17.679Z,11.60
2019-05-22T01:56:48.820Z,11.60
2019-05-22T01:59:19.449Z,11.60
2019-05-22T02:01:51.753Z,11.50
2019-05-22T02:04:22.661Z,11.60
2019-05-22T02:06:55.486Z,11.60
2019-05-22T02:09:35.555Z,11.60
2019-05-22T02:12:20.148Z,11.60
2019-05-22T02:14:52.924Z,11.60
2019-05-22T02:17:33.903Z,11.60
2019-05-22T02:20:09.059Z,11.60
2019-05-22T02:22:42.325Z,11.60
2019-05-22T02:25:14.022Z,11.60
2019-05-22T02:27:46.278Z,11.60
2019-05-22T02:30:21.054Z,11.60
2019-05-22T02:32:52.614Z,11.60
2019-05-22T02:35:23.892Z,11.50
2019-05-22T02:37:54.795Z,11.40
2019-05-22T02:40:32.557Z,11.40
2019-05-22T02:43:03.676Z,11.40
2019-05-22T02:45:35.006Z,11.40
2019-05-22T02:48:07.792Z,11.40
2019-05-22T02:50:39.624Z,11.40
2019-05-22T02:53:13.775Z,11.40
2019-05-22T02:55:44.373Z,11.50
2019-05-22T02:58:18.357Z,11.50
2019-05-22T03:01:05.319Z,11.50
2019-05-22T03:03:37.888Z,11.50
2019-05-22T03:06:13.852Z,11.50
2019-05-22T03:09:18.904Z,11.50
2019-05-22T03:12:00.362Z,11.50
2019-05-22T03:14:33.132Z,11.50
2019-05-22T03:17:08.405Z,11.50
2019-05-22T03:19:43.940Z,11.50
2019-05-22T03:22:31.473Z,11.50
2019-05-22T03:25:09.206Z,11.50
2019-05-22T03:27:44.127Z,11.60
2019-05-22T03:30:24.285Z,11.60
2019-05-22T03:32:56.666Z,11.60
2019-05-22T03:35:30.362Z,11.60
2019-05-22T03:38:04.278Z,11.60
2019-05-22T03:40:38.044Z,11.60
2019-05-22T03:43:22.591Z,11.60
2019-05-22T03:45:54.425Z,11.50
2019-05-22T03:48:28.387Z,11.40
2019-05-22T03:51:11.171Z,11.30
2019-05-22T03:53:43.961Z,11.30
2019-05-22T03:56:16.524Z,11.40
2019-05-22T03:58:47.487Z,11.40
2019-05-22T04:01:19.554Z,11.40
2019-05-22T04:03:50.310Z,11.40
2019-05-22T04:06:22.026Z,11.40
2019-05-22T04:08:54.451Z,11.40
2019-05-22T04:11:32.050Z,11.50
2019-05-22T04:14:02.665Z,11.50
2019-05-22T04:16:33.069Z,11.50
2019-05-22T04:19:05.241Z,11.60
2019-05-22T04:21:36.167Z,11.60
2019-05-22T04:24:07.501Z,11.50
2019-05-22T04:26:39.628Z,11.50
2019-05-22T04:29:10.921Z,11.40
2019-05-22T04:31:58.305Z,11.40
2019-05-22T04:34:29.595Z,11.40
2019-05-22T04:37:00.672Z,11.40
2019-05-22T04:39:33.026Z,11.40
2019-05-22T04:42:04.171Z,11.40
2019-05-22T04:44:37.027Z,11.40
2019-05-22T04:47:08.065Z,11.40
2019-05-22T04:49:39.465Z,11.40
2019-05-22T04:52:11.216Z,11.50
2019-05-22T04:54:41.761Z,11.50
2019-05-22T04:57:13.272Z,11.60
2019-05-22T04:59:43.806Z,11.60
2019-05-22T05:02:14.330Z,11.60
2019-05-22T05:04:44.845Z,11.60
2019-05-22T05:07:15.850Z,11.70
2019-05-22T05:09:46.963Z,11.70
2019-05-22T05:12:18.860Z,11.80
2019-05-22T05:14:49.390Z,11.90
2019-05-22T05:17:19.985Z,12.00
2019-05-22T05:19:50.432Z,12.00
2019-05-22T05:22:33.394Z,12.00
2019-05-22T05:25:03.854Z,12.10
2019-05-22T05:27:34.631Z,12.10
2019-05-22T05:30:05.898Z,12.20
2019-05-22T05:32:38.108Z,12.10
2019-05-22T05:35:12.813Z,12.40
2019-05-22T05:37:44.397Z,12.50
2019-05-22T05:40:38.142Z,12.70
2019-05-22T05:43:15.325Z,12.90
2019-05-22T05:45:49.788Z,13.40
2019-05-22T05:48:24.308Z,13.60
2019-05-22T05:51:33.200Z,14.00
2019-05-22T05:54:11.179Z,14.10
2019-05-22T05:56:45.227Z,14.40
2019-05-22T05:59:17.853Z,14.40
2019-05-22T06:01:58.926Z,14.70
2019-05-22T06:04:39.831Z,14.90
2019-05-22T06:07:22.759Z,15.30
2019-05-22T06:10:53.769Z,15.50
2019-05-22T06:13:24.260Z,15.60
2019-05-22T06:16:56.061Z,15.60
2019-05-22T06:19:28.494Z,15.40
2019-05-22T06:22:00.370Z,15.60
2019-05-22T06:25:04.555Z,15.60
2019-05-22T06:27:44.700Z,15.70
2019-05-22T06:30:34.959Z,15.90
2019-05-22T06:33:43.815Z,16.00
2019-05-22T06:37:19.673Z,16.00
2019-05-22T06:53:36.185Z,16.10
2019-05-22T07:11:04.335Z,14.30
2019-05-22T07:21:56.508Z,14.60
2019-05-22T07:24:29.867Z,15.40
2019-05-22T07:27:28.662Z,16.10
2019-05-22T07:30:41.762Z,16.80
2019-05-22T07:33:13.302Z,16.40
2019-05-22T07:36:46.130Z,15.80
2019-05-22T07:40:35.159Z,15.60
2019-05-22T07:44:18.225Z,16.20
2019-05-22T07:47:28.691Z,16.30
2019-05-22T07:50:02.787Z,16.50
2019-05-22T07:52:59.227Z,15.70
2019-05-22T07:55:34.970Z,15.70
2019-05-22T08:01:46.914Z,15.70
2019-05-22T08:04:22.497Z,16.20
2019-05-22T08:07:22.683Z,16.80
2019-05-22T08:13:41.924Z,17.70
2019-05-22T08:16:16.831Z,17.50
2019-05-22T08:18:47.600Z,17.70
2019-05-22T08:21:18.405Z,17.80
2019-05-22T08:23:49.670Z,18.10
2019-05-22T08:26:23.824Z,18.30
2019-05-22T08:29:47.061Z,18.30
2019-05-22T08:32:20.566Z,18.10
2019-05-22T08:34:51.828Z,18.00
2019-05-22T08:37:31.457Z,18.00
2019-05-22T08:40:03.033Z,17.50
2019-05-22T08:42:38.046Z,17.40
2019-05-22T08:45:09.871Z,17.60
2019-05-22T08:47:40.763Z,17.80
2019-05-22T08:50:15.221Z,18.00
2019-05-22T08:52:48.155Z,18.20
2019-05-22T08:55:20.911Z,18.40
2019-05-22T08:58:03.695Z,18.80
2019-05-22T09:00:35.556Z,18.40
2019-05-22T09:03:06.297Z,17.80
2019-05-22T09:05:43.420Z,18.20
2019-05-22T09:08:15.035Z,18.60
2019-05-22T09:10:48.622Z,19.10
2019-05-22T09:13:56.218Z,19.30
2019-05-22T09:16:28.437Z,19.30
2019-05-22T09:19:00.456Z,19.50
2019-05-22T09:21:32.456Z,19.30
2019-05-22T09:24:05.160Z,19.00
2019-05-22T09:26:36.136Z,19.00
2019-05-22T09:29:07.015Z,19.00
2019-05-22T09:31:38.751Z,18.30
2019-05-22T09:34:09.842Z,18.60
2019-05-22T09:36:41.125Z,19.10
2019-05-22T09:39:12.130Z,19.10
2019-05-22T09:41:42.856Z,19.40
2019-05-22T09:44:16.728Z,19.10
2019-05-22T09:46:48.325Z,19.00
2019-05-22T09:49:23.803Z,18.70
2019-05-22T09:51:52.621Z,18.30
2019-05-22T09:54:23.071Z,18.50
2019-05-22T09:56:53.688Z,18.50
2019-05-22T09:59:24.543Z,18.10
2019-05-22T10:01:55.121Z,17.90
2019-05-22T10:04:25.579Z,18.10
2019-05-22T10:06:56.112Z,18.90
2019-05-22T10:09:29.173Z,19.70
2019-05-22T10:12:52.091Z,19.70
2019-05-22T10:18:17.118Z,19.00
2019-05-22T10:20:47.987Z,19.50
2019-05-22T10:23:23.882Z,19.30
2019-05-22T10:25:54.255Z,19.90
2019-05-22T10:28:24.778Z,20.50
2019-05-22T10:30:56.611Z,21.00
2019-05-22T10:33:27.870Z,21.20
2019-05-22T10:35:58.711Z,21.50
2019-05-22T10:38:30.769Z,21.40
2019-05-22T10:41:01.228Z,21.80
2019-05-22T10:43:34.744Z,21.60
2019-05-22T10:46:08.409Z,21.70
2019-05-22T10:48:40.321Z,20.90
2019-05-22T10:51:11.745Z,21.30
2019-05-22T10:53:43.091Z,21.70
2019-05-22T10:56:13.677Z,22.20
2019-05-22T10:58:44.535Z,21.80
2019-05-22T11:01:16.593Z,21.90
2019-05-22T11:03:47.651Z,21.30
2019-05-22T11:06:18.519Z,21.60
2019-05-22T11:08:49.233Z,23.10
2019-05-22T11:11:20.874Z,24.10
2019-05-22T11:14:01.147Z,24.10
2019-05-22T11:16:24.587Z,25.50
2019-05-22T11:18:56.238Z,25.10
2019-05-22T11:21:27.608Z,25.30
2019-05-22T11:23:58.154Z,25.80
2019-05-22T11:26:28.979Z,25.10
2019-05-22T11:28:59.917Z,24.90
2019-05-22T11:31:30.672Z,23.80
2019-05-22T11:34:01.385Z,23.80
2019-05-22T11:36:33.363Z,24.20
2019-05-22T11:39:05.687Z,24.80
2019-05-22T11:41:36.604Z,24.90
2019-05-22T11:44:07.178Z,24.70
2019-05-22T11:46:38.919Z,24.70
2019-05-22T11:49:10.121Z,24.10
2019-05-22T11:51:43.335Z,24.50
2019-05-22T11:54:14.356Z,24.30
2019-05-22T11:56:45.076Z,24.60
2019-05-22T11:59:16.043Z,23.50
2019-05-22T12:01:47.091Z,22.60
2019-05-22T12:04:17.768Z,23.20
2019-05-22T12:06:53.306Z,23.70
2019-05-22T12:09:23.238Z,24.00
2019-05-22T12:11:53.859Z,24.20
2019-05-22T12:14:24.632Z,24.50
2019-05-22T12:16:55.602Z,23.40
2019-05-22T12:19:27.267Z,24.10
2019-05-22T12:21:58.095Z,24.00
2019-05-22T12:24:36.820Z,24.00
2019-05-22T12:27:02.651Z,25.10
2019-05-22T12:29:33.269Z,25.60
2019-05-22T12:32:05.061Z,24.80
2019-05-22T12:34:35.983Z,25.40
2019-05-22T12:37:08.482Z,25.90
2019-05-22T12:39:41.530Z,25.30
2019-05-22T12:42:15.493Z,24.50
2019-05-22T12:44:46.427Z,23.80
2019-05-22T12:47:17.917Z,24.70
2019-05-22T12:49:49.769Z,25.00
2019-05-22T12:52:20.446Z,25.10
2019-05-22T12:54:53.069Z,25.00
2019-05-22T12:57:24.897Z,25.00
2019-05-22T12:59:56.013Z,25.60
2019-05-22T13:02:26.676Z,24.90
2019-05-22T13:04:59.664Z,25.50
2019-05-22T13:07:31.256Z,25.70
2019-05-22T13:10:02.191Z,25.80
2019-05-22T13:12:32.840Z,26.20
2019-05-22T13:15:09.905Z,25.80
2019-05-22T13:17:36.897Z,25.40
2019-05-22T13:20:10.307Z,25.00
2019-05-22T13:22:47.642Z,25.20
2019-05-22T13:25:20.888Z,25.50
2019-05-22T13:27:53.377Z,25.50
2019-05-22T13:30:28.739Z,25.80
2019-05-22T13:33:00.851Z,25.50
2019-05-22T13:35:31.786Z,24.90
2019-05-22T13:38:02.956Z,24.70
2019-05-22T13:40:34.716Z,23.80
2019-05-22T13:43:07.628Z,24.50
2019-05-22T13:45:39.037Z,25.30
2019-05-22T13:48:10.221Z,24.80
2019-05-22T13:50:41.627Z,24.70
2019-05-22T13:53:15.913Z,25.50
2019-05-22T13:55:48.139Z,25.90
2019-05-22T13:58:20.661Z,26.20
2019-05-22T14:00:51.922Z,26.20
2019-05-22T14:03:23.614Z,26.10
2019-05-22T14:05:55.412Z,25.60
2019-05-22T14:08:26.119Z,25.50
2019-05-22T14:10:56.608Z,25.60
2019-05-22T14:13:27.938Z,25.80
2019-05-22T14:15:58.541Z,25.40
2019-05-22T14:18:29.315Z,24.70
2019-05-22T14:21:00.133Z,25.20
2019-05-22T14:23:31.513Z,25.50
2019-05-22T14:26:02.268Z,25.30
2019-05-22T14:28:35.187Z,25.60
2019-05-22T14:31:05.984Z,25.70
2019-05-22T14:33:40.485Z,25.40
2019-05-22T14:36:11.686Z,25.40
2019-05-22T14:38:43.308Z,25.80
2019-05-22T14:41:14.403Z,25.50
2019-05-22T14:43:44.906Z,25.00
2019-05-22T14:46:16.029Z,24.80
2019-05-22T14:48:46.573Z,24.20
2019-05-22T14:51:20.467Z,24.00
2019-05-22T14:53:52.134Z,24.20
2019-05-22T14:56:23.775Z,24.00
2019-05-22T14:58:55.241Z,24.20
2019-05-22T15:01:26.559Z,23.90
2019-05-22T15:03:57.142Z,23.80
2019-05-22T15:06:28.222Z,23.60
2019-05-22T15:08:58.829Z,23.80
2019-05-22T15:11:31.626Z,23.80
2019-05-22T15:14:02.401Z,23.00
2019-05-22T15:16:33.861Z,22.00
2019-05-22T15:19:05.327Z,21.80
2019-05-22T15:21:36.190Z,21.40
2019-05-22T15:24:16.088Z,20.70
2019-05-22T15:26:47.223Z,20.50
2019-05-22T15:29:18.119Z,20.60
2019-05-22T15:31:49.756Z,21.30
2019-05-22T15:34:21.094Z,21.70
2019-05-22T15:36:51.637Z,22.00
2019-05-22T15:39:27.042Z,22.00
2019-05-22T15:41:59.453Z,21.90
2019-05-22T15:44:30.972Z,21.90
2019-05-22T15:47:01.508Z,21.80
2019-05-22T15:49:33.167Z,21.70
2019-05-22T15:52:07.396Z,21.20
2019-05-22T15:54:40.493Z,21.10
2019-05-22T15:57:12.898Z,20.90
2019-05-22T15:59:45.198Z,20.90
2019-05-22T16:02:21.746Z,20.90
2019-05-22T16:04:52.588Z,20.60
2019-05-22T16:07:24.982Z,20.60
2019-05-22T16:09:55.506Z,20.60
2019-05-22T16:12:28.697Z,20.90
2019-05-22T16:15:02.946Z,20.70
2019-05-22T16:17:35.870Z,20.60
2019-05-22T16:20:07.474Z,21.00
2019-05-22T16:22:38.884Z,21.10
2019-05-22T16:25:11.311Z,21.20
2019-05-22T16:27:44.065Z,20.90
2019-05-22T16:30:16.474Z,20.70
2019-05-22T16:32:47.963Z,20.60
2019-05-22T16:35:19.169Z,20.60
2019-05-22T16:37:51.149Z,20.50
2019-05-22T16:40:23.074Z,20.20
2019-05-22T16:42:54.912Z,20.60
2019-05-22T16:45:26.872Z,20.80
2019-05-22T16:48:01.635Z,20.90
2019-05-22T16:50:33.431Z,20.30
2019-05-22T16:53:10.778Z,20.20
2019-05-22T16:55:43.989Z,20.30
2019-05-22T16:58:15.637Z,20.50
2019-05-22T17:00:47.300Z,20.50
2019-05-22T17:03:19.754Z,20.20
2019-05-22T17:05:50.546Z,20.00
2019-05-22T17:08:21.968Z,19.90
2019-05-22T17:10:53.071Z,20.10
2019-05-22T17:13:24.175Z,20.20
2019-05-22T17:15:56.846Z,19.90
2019-05-22T17:18:45.922Z,20.00
2019-05-22T17:21:05.432Z,19.60
2019-05-22T17:23:37.106Z,19.80
2019-05-22T17:26:08.633Z,19.80
2019-05-22T17:28:39.182Z,19.50
2019-05-22T17:31:11.218Z,19.40
2019-05-22T17:33:42.459Z,19.60
2019-05-22T17:36:13.594Z,19.70
2019-05-22T17:38:44.421Z,19.80
2019-05-22T17:41:15.280Z,19.90
2019-05-22T17:43:47.407Z,19.90
2019-05-22T17:46:20.338Z,19.90
2019-05-22T17:48:51.210Z,19.60
2019-05-22T17:51:23.234Z,19.70
2019-05-22T17:53:54.961Z,19.50
2019-05-22T17:56:25.828Z,19.60
2019-05-22T17:58:56.539Z,19.20
2019-05-22T18:01:27.750Z,18.90
2019-05-22T18:03:58.487Z,18.80
2019-05-22T18:06:29.165Z,18.90
2019-05-22T18:08:59.700Z,18.80
2019-05-22T18:11:30.776Z,18.90
2019-05-22T18:14:05.924Z,19.10
2019-05-22T18:16:37.121Z,19.10
2019-05-22T18:19:08.708Z,19.40
2019-05-22T18:21:40.098Z,19.20
2019-05-22T18:24:10.679Z,19.00
2019-05-22T18:26:41.327Z,18.90
2019-05-22T18:29:11.825Z,18.80
2019-05-22T18:31:42.773Z,19.00
2019-05-22T18:34:13.250Z,18.80
2019-05-22T18:36:43.744Z,18.60
2019-05-22T18:39:15.965Z,18.90
2019-05-22T18:41:46.511Z,19.10
2019-05-22T18:44:17.121Z,19.20
2019-05-22T18:46:47.853Z,19.20
2019-05-22T18:49:18.626Z,19.10
2019-05-22T18:51:49.385Z,18.80
2019-05-22T18:54:19.813Z,18.80
2019-05-22T18:56:50.287Z,18.70
2019-05-22T18:59:20.969Z,18.60
2019-05-22T19:01:51.610Z,18.60
2019-05-22T19:04:22.716Z,18.50
2019-05-22T19:06:55.962Z,18.60
2019-05-22T19:09:26.132Z,18.70
2019-05-22T19:11:56.883Z,18.70
2019-05-22T19:14:29.951Z,18.60
2019-05-22T19:17:01.430Z,18.50
2019-05-22T19:19:32.155Z,18.40
2019-05-22T19:22:02.886Z,18.30
2019-05-22T19:24:33.509Z,18.30
2019-05-22T19:27:04.040Z,18.30
2019-05-22T19:29:34.568Z,18.20
2019-05-22T19:32:05.513Z,18.00
2019-05-22T19:34:36.062Z,18.00
2019-05-22T19:37:06.583Z,18.00
2019-05-22T19:39:38.331Z,18.00
2019-05-22T19:42:09.904Z,17.90
2019-05-22T19:44:40.423Z,17.70
2019-05-22T19:47:11.237Z,17.70
2019-05-22T19:49:43.865Z,17.50
2019-05-22T19:52:15.166Z,17.50
2019-05-22T19:54:45.705Z,17.40
2019-05-22T19:57:16.637Z,17.40
2019-05-22T19:59:48.225Z,17.40
2019-05-22T20:02:18.717Z,17.40
2019-05-22T20:04:49.956Z,17.30
2019-05-22T20:07:21.277Z,17.20
2019-05-22T20:09:53.631Z,17.20
2019-05-22T20:12:25.397Z,17.00
2019-05-22T20:14:56.318Z,17.00
2019-05-22T20:17:27.173Z,16.90
2019-05-22T20:19:57.619Z,16.80
2019-05-22T20:22:28.779Z,16.80
2019-05-22T20:24:59.448Z,16.80
2019-05-22T20:27:30.562Z,16.60
2019-05-22T20:30:01.475Z,16.50
2019-05-22T20:32:31.943Z,16.60
2019-05-22T20:35:03.018Z,16.60
2019-05-22T20:37:33.788Z,16.40
2019-05-22T20:40:04.949Z,16.40
2019-05-22T20:42:35.850Z,16.40
2019-05-22T20:45:08.333Z,16.40
2019-05-22T20:47:41.974Z,16.30
2019-05-22T20:50:15.764Z,16.20
2019-05-22T20:52:47.435Z,16.10
2019-05-22T20:55:19.373Z,16.00
2019-05-22T20:57:50.926Z,15.90
2019-05-22T21:00:23.295Z,16.00
2019-05-22T21:03:03.734Z,15.90
2019-05-22T21:05:34.241Z,15.80
2019-05-22T21:08:10.326Z,15.90
2019-05-22T21:10:48.210Z,15.80
2019-05-22T21:13:19.582Z,15.70
2019-05-22T21:15:52.266Z,15.60
2019-05-22T21:18:28.398Z,15.60
2019-05-22T21:21:00.299Z,15.60
2019-05-22T21:23:31.022Z,15.40
2019-05-22T21:26:02.174Z,15.40
2019-05-22T21:28:32.841Z,15.40
2019-05-22T21:31:04.105Z,15.40
2019-05-22T21:33:35.041Z,15.40
2019-05-22T21:36:09.863Z,15.40
2019-05-22T21:38:41.507Z,15.40
2019-05-22T21:41:12.232Z,15.30
2019-05-22T21:43:43.130Z,15.30
2019-05-22T21:46:15.072Z,15.30
2019-05-22T21:48:47.349Z,15.20
2019-05-22T21:51:22.040Z,15.10
2019-05-22T21:53:54.345Z,15.00
2019-05-22T21:56:26.165Z,14.90
2019-05-22T21:58:57.581Z,14.90
2019-05-22T22:01:45.228Z,14.90
2019-05-22T22:04:20.633Z,14.90
2019-05-22T22:06:55.211Z,14.90
2019-05-22T22:09:28.694Z,14.80
2019-05-22T22:12:00.809Z,14.80
2019-05-22T22:14:32.325Z,14.60
2019-05-22T22:17:05.372Z,14.60
2019-05-22T22:19:37.149Z,14.40
2019-05-22T22:22:11.654Z,14.40
2019-05-22T22:24:43.358Z,14.30
2019-05-22T22:27:16.586Z,14.30
2019-05-22T22:29:47.709Z,14.30
2019-05-22T22:32:19.792Z,14.30
2019-05-22T22:34:53.309Z,14.20
2019-05-22T22:37:24.841Z,14.20
2019-05-22T22:39:59.796Z,14.20
2019-05-22T22:42:31.780Z,14.20
2019-05-22T22:45:06.177Z,14.10
2019-05-22T22:47:41.097Z,14.10
2019-05-22T22:50:13.137Z,14.20
2019-05-22T22:52:45.921Z,14.20
2019-05-22T22:55:20.117Z,14.30
2019-05-22T22:57:52.324Z,14.30
2019-05-22T23:00:29.771Z,14.30
2019-05-22T23:03:01.683Z,14.20
2019-05-22T23:05:34.991Z,14.20
2019-05-22T23:08:05.958Z,14.20
2019-05-22T23:10:37.195Z,14.10
2019-05-22T23:13:08.718Z,14.10
2019-05-22T23:15:40.133Z,14.10
2019-05-22T23:18:14.604Z,14.10
2019-05-22T23:20:44.227Z,14.10
2019-05-22T23:23:12.254Z,14.10
2019-05-22T23:25:44.244Z,14.10
2019-05-22T23:28:25.174Z,14.10
2019-05-22T23:30:48.699Z,14.10
2019-05-22T23:33:21.122Z,14.00
2019-05-22T23:35:52.654Z,14.00
2019-05-22T23:38:23.155Z,14.00
2019-05-22T23:40:56.343Z,14.00
2019-05-22T23:43:29.167Z,13.90
2019-05-22T23:46:00.853Z,13.80
2019-05-22T23:48:33.375Z,13.80
2019-05-22T23:51:03.949Z,13.90
2019-05-22T23:53:36.798Z,13.90
2019-05-22T23:56:09.059Z,13.90
2019-05-22T23:58:52.325Z,13.90
